Daimongate — D5MV5 — position and weather

sailwx.info

Track history (hours):
 
Tides and Currents Weather Stations Pressure Air Temp Water Temp Dewpoint Dewpoint Depression Visibility Wind Speed Wind Dir Waves Ship Positions

Daimongate

Last reported at 2018-May-21 04:51 UTC. Time now 2018-May-21 05:26 UTC.
Position S 32°15' E 115°45'.

Length 199 m; draft 6.5 m.

Type: Cargo ship. MMSI: 636017816.

Date/timePositionNaut miles runAvg speedWind from/ knotsBaromVisibWave heightAir tempDewpointWater temp
2018-May-21 04:51S 32°15' E 115°45'0 0.0
2018-May-21 02:51S 32°15' E 115°45'0 0.0
2018-May-21 02:21S 32°15' E 115°45'0 0.0
2018-May-21 01:33S 32°15' E 115°45'0 0.0
2018-May-21 01:27S 32°15' E 115°45'0 0.0
2018-May-21 00:57S 32°15' E 115°45'0 0.0
2018-May-21 00:21S 32°15' E 115°45'0 0.0
2018-May-20 23:45S 32°15' E 115°45'0 0.0
2018-May-20 23:27S 32°15' E 115°45'0 0.0
2018-May-20 22:27S 32°15' E 115°45'0 0.0
2018-May-20 18:03S 32°15' E 115°45'0 0.0
2018-May-20 17:39S 32°15' E 115°45'0 0.0
2018-May-20 15:57S 32°15' E 115°45'0 0.0
2018-May-20 14:00S 32°15' E 115°45'0 0.0
2018-May-20 13:21S 32°15' E 115°45'0 0.0
2018-May-20 13:00S 32°15' E 115°45'0 0.0
2018-May-20 10:00S 32°15' E 115°45'0 0.0
2018-May-20 09:27S 32°15' E 115°45'0 0.0
2018-May-20 09:00S 32°15' E 115°45'0 0.0
2018-May-20 08:30S 32°15' E 115°45'0 0.0
2018-May-20 07:39S 32°15' E 115°45'0 0.0
2018-May-20 07:27S 32°15' E 115°45'0 0.0
2018-May-20 06:51S 32°15' E 115°45'0 0.0
2018-May-20 06:27S 32°15' E 115°45'0 0.0
2018-May-20 05:51S 32°15' E 115°45'0 0.0
2018-May-20 00:45S 32°15' E 115°45'0 0.0
2018-May-20 00:18S 32°15' E 115°45'0 0.0
2018-May-19 21:51S 32°15' E 115°45'0 0.0
2018-May-19 19:39S 32°15' E 115°45'0 0.0
2018-May-19 19:27S 32°15' E 115°45'0 0.0
2018-May-19 18:39S 32°15' E 115°45'0 0.0
2018-May-19 18:03S 32°15' E 115°45'0 0.0
2018-May-19 17:57S 32°15' E 115°45'0 0.0
2018-May-19 17:15S 32°15' E 115°45'0 0.0
2018-May-19 17:00S 32°15' E 115°45'0 0.0
2018-May-19 15:57S 32°15' E 115°45'0 0.0
2018-May-19 15:15S 32°15' E 115°45'0 0.0
2018-May-19 14:42S 32°15' E 115°45'0 0.0
2018-May-19 03:51S 32°15' E 115°45'0 0.0
2018-May-19 03:15S 32°15' E 115°45'0 0.0
2018-May-19 02:57S 32°15' E 115°45'0 0.0
2018-May-19 02:21S 32°15' E 115°45'0 0.0
2018-May-19 01:45S 32°15' E 115°45'0 0.0
2018-May-19 01:21S 32°15' E 115°45'0 0.0
2018-May-19 00:57S 32°15' E 115°45'0 0.0
2018-May-19 00:27S 32°15' E 115°45'0 0.0
2018-May-18 10:51S 32°15' E 115°45'0 0.0
2018-May-18 10:29S 32°15' E 115°45'2 3.5
2018-May-18 10:00S 32°14' E 115°44'2 2.8
2018-May-18 09:28S 32°13' E 115°43'0 0.1
2018-May-18 08:58S 32°13' E 115°43'0 0.0
2018-May-18 08:28S 32°13' E 115°43'0 0.0
2018-May-18 07:52S 32°13' E 115°43'0 0.0
2018-May-18 07:28S 32°13' E 115°43'0 0.2
2018-May-18 06:58S 32°13' E 115°43'0 0.0
2018-May-18 06:22S 32°13' E 115°43'0 0.1
2018-May-18 05:58S 32°13' E 115°43'0 0.0
2018-May-18 05:28S 32°13' E 115°43'0 0.0
2018-May-18 04:46S 32°13' E 115°43'0 0.2
2018-May-18 04:28S 32°13' E 115°43'0 0.0
2018-May-18 03:58S 32°13' E 115°43'0 0.1
2018-May-18 03:28S 32°13' E 115°43'0 0.0
2018-May-18 02:55S 32°13' E 115°43'0 0.6
2018-May-18 02:30S 32°13' E 115°43'510.3
2018-May-18 02:00S 32°07' E 115°42'611.7
2018-May-18 01:30S 32°02' E 115°41'3 5.8
2018-May-18 00:59S 31°59' E 115°42'3 7.1
2018-May-18 00:31S 31°57' E 115°38'5 9.1
2018-May-18 00:00S 31°53' E 115°35'  
Track history (hours):
 
Tides and Currents Weather Stations Pressure Air Temp Water Temp Dewpoint Dewpoint Depression Visibility Wind Speed Wind Dir Waves Ship Positions

Daimongate

Last reported at 2018-May-21 04:51 UTC. Time now 2018-May-21 05:26 UTC.
Position S 32°15' E 115°45'.

Length 199 m; draft 6.5 m.

Type: Cargo ship. MMSI: 636017816.

Date/timePositionNaut miles runAvg speedWind from/ knotsBaromVisibWave heightAir tempDewpointWater temp
2018-May-21 04:51S 32°15' E 115°45'0 0.0
2018-May-21 02:51S 32°15' E 115°45'0 0.0
2018-May-21 02:21S 32°15' E 115°45'0 0.0
2018-May-21 01:33S 32°15' E 115°45'0 0.0
2018-May-21 01:27S 32°15' E 115°45'0 0.0
2018-May-21 00:57S 32°15' E 115°45'0 0.0
2018-May-21 00:21S 32°15' E 115°45'0 0.0
2018-May-20 23:45S 32°15' E 115°45'0 0.0
2018-May-20 23:27S 32°15' E 115°45'0 0.0
2018-May-20 22:27S 32°15' E 115°45'0 0.0
2018-May-20 18:03S 32°15' E 115°45'0 0.0
2018-May-20 17:39S 32°15' E 115°45'0 0.0
2018-May-20 15:57S 32°15' E 115°45'0 0.0
2018-May-20 14:00S 32°15' E 115°45'0 0.0
2018-May-20 13:21S 32°15' E 115°45'0 0.0
2018-May-20 13:00S 32°15' E 115°45'0 0.0
2018-May-20 10:00S 32°15' E 115°45'0 0.0
2018-May-20 09:27S 32°15' E 115°45'0 0.0
2018-May-20 09:00S 32°15' E 115°45'0 0.0
2018-May-20 08:30S 32°15' E 115°45'0 0.0
2018-May-20 07:39S 32°15' E 115°45'0 0.0
2018-May-20 07:27S 32°15' E 115°45'0 0.0
2018-May-20 06:51S 32°15' E 115°45'0 0.0
2018-May-20 06:27S 32°15' E 115°45'0 0.0
2018-May-20 05:51S 32°15' E 115°45'0 0.0
2018-May-20 00:45S 32°15' E 115°45'0 0.0
2018-May-20 00:18S 32°15' E 115°45'0 0.0
2018-May-19 21:51S 32°15' E 115°45'0 0.0
2018-May-19 19:39S 32°15' E 115°45'0 0.0
2018-May-19 19:27S 32°15' E 115°45'0 0.0
2018-May-19 18:39S 32°15' E 115°45'0 0.0
2018-May-19 18:03S 32°15' E 115°45'0 0.0
2018-May-19 17:57S 32°15' E 115°45'0 0.0
2018-May-19 17:15S 32°15' E 115°45'0 0.0
2018-May-19 17:00S 32°15' E 115°45'0 0.0
2018-May-19 15:57S 32°15' E 115°45'0 0.0
2018-May-19 15:15S 32°15' E 115°45'0 0.0
2018-May-19 14:42S 32°15' E 115°45'0 0.0
2018-May-19 03:51S 32°15' E 115°45'0 0.0
2018-May-19 03:15S 32°15' E 115°45'0 0.0
2018-May-19 02:57S 32°15' E 115°45'0 0.0
2018-May-19 02:21S 32°15' E 115°45'0 0.0
2018-May-19 01:45S 32°15' E 115°45'0 0.0
2018-May-19 01:21S 32°15' E 115°45'0 0.0
2018-May-19 00:57S 32°15' E 115°45'0 0.0
2018-May-19 00:27S 32°15' E 115°45'0 0.0
2018-May-18 10:51S 32°15' E 115°45'0 0.0
2018-May-18 10:29S 32°15' E 115°45'2 3.5
2018-May-18 10:00S 32°14' E 115°44'2 2.8
2018-May-18 09:28S 32°13' E 115°43'0 0.1
2018-May-18 08:58S 32°13' E 115°43'0 0.0
2018-May-18 08:28S 32°13' E 115°43'0 0.0
2018-May-18 07:52S 32°13' E 115°43'0 0.0
2018-May-18 07:28S 32°13' E 115°43'0 0.2
2018-May-18 06:58S 32°13' E 115°43'0 0.0
2018-May-18 06:22S 32°13' E 115°43'0 0.1
2018-May-18 05:58S 32°13' E 115°43'0 0.0
2018-May-18 05:28S 32°13' E 115°43'0 0.0
2018-May-18 04:46S 32°13' E 115°43'0 0.2
2018-May-18 04:28S 32°13' E 115°43'0 0.0
2018-May-18 03:58S 32°13' E 115°43'0 0.1
2018-May-18 03:28S 32°13' E 115°43'0 0.0
2018-May-18 02:55S 32°13' E 115°43'0 0.6
2018-May-18 02:30S 32°13' E 115°43'510.3
2018-May-18 02:00S 32°07' E 115°42'611.7
2018-May-18 01:30S 32°02' E 115°41'3 5.8
2018-May-18 00:59S 31°59' E 115°42'3 7.1
2018-May-18 00:31S 31°57' E 115°38'5 9.1
2018-May-18 00:00S 31°53' E 115°35'  

Dump ship's entire track history